sensor_id;sensor_type;location;lat;lon;timestamp;P1;durP1;ratioP1;P2;durP2;ratioP2
32407;SDS011;18869;55.970;37.502;2023-05-16T00:01:26;11.13;;;9.47;;
32407;SDS011;18869;55.970;37.502;2023-05-16T00:03:56;14.60;;;10.77;;
32407;SDS011;18869;55.970;37.502;2023-05-16T00:06:24;13.40;;;9.90;;
32407;SDS011;18869;55.970;37.502;2023-05-16T00:08:53;13.73;;;9.67;;
32407;SDS011;18869;55.970;37.502;2023-05-16T00:11:22;17.33;;;9.67;;
32407;SDS011;18869;55.970;37.502;2023-05-16T00:13:50;17.87;;;9.73;;
32407;SDS011;18869;55.970;37.502;2023-05-16T00:16:19;18.27;;;10.93;;
32407;SDS011;18869;55.970;37.502;2023-05-16T00:18:50;24.60;;;10.80;;
32407;SDS011;18869;55.970;37.502;2023-05-16T00:21:18;14.97;;;9.87;;
32407;SDS011;18869;55.970;37.502;2023-05-16T00:23:47;18.53;;;10.10;;
32407;SDS011;18869;55.970;37.502;2023-05-16T00:26:15;17.03;;;9.53;;
32407;SDS011;18869;55.970;37.502;2023-05-16T00:28:44;16.97;;;10.40;;
32407;SDS011;18869;55.970;37.502;2023-05-16T00:31:12;15.40;;;10.27;;
32407;SDS011;18869;55.970;37.502;2023-05-16T00:33:41;14.00;;;9.63;;
32407;SDS011;18869;55.970;37.502;2023-05-16T00:36:09;14.97;;;9.63;;
32407;SDS011;18869;55.970;37.502;2023-05-16T00:38:37;14.63;;;9.27;;
32407;SDS011;18869;55.970;37.502;2023-05-16T00:41:06;17.13;;;9.60;;
32407;SDS011;18869;55.970;37.502;2023-05-16T00:43:35;18.93;;;10.87;;
32407;SDS011;18869;55.970;37.502;2023-05-16T00:46:06;12.93;;;9.37;;
32407;SDS011;18869;55.970;37.502;2023-05-16T00:48:34;18.77;;;11.17;;
32407;SDS011;18869;55.970;37.502;2023-05-16T00:51:02;21.13;;;13.27;;
32407;SDS011;18869;55.970;37.502;2023-05-16T00:53:34;27.50;;;14.17;;
32407;SDS011;18869;55.970;37.502;2023-05-16T00:56:02;23.83;;;14.07;;
32407;SDS011;18869;55.970;37.502;2023-05-16T00:58:32;17.93;;;12.63;;
32407;SDS011;18869;55.970;37.502;2023-05-16T01:01:01;21.00;;;12.70;;
32407;SDS011;18869;55.970;37.502;2023-05-16T01:03:31;20.67;;;11.63;;
32407;SDS011;18869;55.970;37.502;2023-05-16T01:06:00;18.63;;;11.80;;
32407;SDS011;18869;55.970;37.502;2023-05-16T01:08:28;21.53;;;12.93;;
32407;SDS011;18869;55.970;37.502;2023-05-16T01:11:02;23.53;;;12.13;;
32407;SDS011;18869;55.970;37.502;2023-05-16T01:13:40;26.40;;;14.93;;
32407;SDS011;18869;55.970;37.502;2023-05-16T01:16:12;26.93;;;14.37;;
32407;SDS011;18869;55.970;37.502;2023-05-16T01:18:46;24.73;;;14.13;;
32407;SDS011;18869;55.970;37.502;2023-05-16T01:21:27;24.53;;;14.87;;
32407;SDS011;18869;55.970;37.502;2023-05-16T01:24:03;28.03;;;14.40;;
32407;SDS011;18869;55.970;37.502;2023-05-16T01:26:40;25.60;;;14.63;;
32407;SDS011;18869;55.970;37.502;2023-05-16T01:29:09;25.63;;;15.43;;
32407;SDS011;18869;55.970;37.502;2023-05-16T01:31:37;25.47;;;14.97;;
32407;SDS011;18869;55.970;37.502;2023-05-16T01:34:05;23.70;;;14.67;;
32407;SDS011;18869;55.970;37.502;2023-05-16T01:36:34;21.23;;;14.27;;
32407;SDS011;18869;55.970;37.502;2023-05-16T01:39:10;26.17;;;13.90;;
32407;SDS011;18869;55.970;37.502;2023-05-16T01:41:46;21.30;;;12.70;;
32407;SDS011;18869;55.970;37.502;2023-05-16T01:44:20;20.87;;;12.10;;
32407;SDS011;18869;55.970;37.502;2023-05-16T01:46:54;18.63;;;11.67;;
32407;SDS011;18869;55.970;37.502;2023-05-16T01:49:26;21.33;;;12.43;;
32407;SDS011;18869;55.970;37.502;2023-05-16T01:52:01;15.67;;;11.33;;
32407;SDS011;18869;55.970;37.502;2023-05-16T01:54:32;18.77;;;12.53;;
32407;SDS011;18869;55.970;37.502;2023-05-16T01:57:07;18.73;;;10.93;;
32407;SDS011;18869;55.970;37.502;2023-05-16T01:59:35;17.17;;;10.27;;
32407;SDS011;18869;55.970;37.502;2023-05-16T02:02:04;15.47;;;9.40;;
32407;SDS011;18869;55.970;37.502;2023-05-16T02:04:33;16.50;;;10.97;;
32407;SDS011;18869;55.970;37.502;2023-05-16T02:07:01;12.73;;;8.57;;
32407;SDS011;18869;55.970;37.502;2023-05-16T02:09:29;18.63;;;9.80;;
32407;SDS011;18869;55.970;37.502;2023-05-16T02:11:58;12.67;;;9.43;;
32407;SDS011;18869;55.970;37.502;2023-05-16T02:14:29;12.93;;;9.47;;
32407;SDS011;18869;55.970;37.502;2023-05-16T02:16:58;13.50;;;9.30;;
32407;SDS011;18869;55.970;37.502;2023-05-16T02:19:26;18.47;;;10.40;;
32407;SDS011;18869;55.970;37.502;2023-05-16T02:21:54;15.40;;;10.60;;
32407;SDS011;18869;55.970;37.502;2023-05-16T02:24:22;13.37;;;8.90;;
32407;SDS011;18869;55.970;37.502;2023-05-16T02:26:50;16.00;;;9.77;;
32407;SDS011;18869;55.970;37.502;2023-05-16T02:29:19;15.73;;;10.33;;
32407;SDS011;18869;55.970;37.502;2023-05-16T02:31:48;12.37;;;9.60;;
32407;SDS011;18869;55.970;37.502;2023-05-16T02:34:16;18.87;;;8.70;;
32407;SDS011;18869;55.970;37.502;2023-05-16T02:36:46;13.40;;;9.77;;
32407;SDS011;18869;55.970;37.502;2023-05-16T02:39:14;13.67;;;9.07;;
32407;SDS011;18869;55.970;37.502;2023-05-16T02:41:42;12.40;;;8.93;;
32407;SDS011;18869;55.970;37.502;2023-05-16T02:44:11;16.27;;;9.50;;
32407;SDS011;18869;55.970;37.502;2023-05-16T02:46:42;12.70;;;9.60;;
32407;SDS011;18869;55.970;37.502;2023-05-16T02:49:11;14.70;;;8.97;;
32407;SDS011;18869;55.970;37.502;2023-05-16T02:51:40;14.20;;;10.00;;
32407;SDS011;18869;55.970;37.502;2023-05-16T02:54:08;13.90;;;8.93;;
32407;SDS011;18869;55.970;37.502;2023-05-16T02:56:36;15.60;;;9.30;;
32407;SDS011;18869;55.970;37.502;2023-05-16T02:59:04;17.27;;;8.87;;
32407;SDS011;18869;55.970;37.502;2023-05-16T03:01:32;12.93;;;9.33;;
32407;SDS011;18869;55.970;37.502;2023-05-16T03:04:00;12.13;;;8.27;;
32407;SDS011;18869;55.970;37.502;2023-05-16T03:06:30;11.23;;;8.33;;
32407;SDS011;18869;55.970;37.502;2023-05-16T03:08:59;16.93;;;8.57;;
32407;SDS011;18869;55.970;37.502;2023-05-16T03:11:27;13.70;;;9.97;;
32407;SDS011;18869;55.970;37.502;2023-05-16T03:13:55;14.83;;;8.73;;
32407;SDS011;18869;55.970;37.502;2023-05-16T03:16:24;14.80;;;9.73;;
32407;SDS011;18869;55.970;37.502;2023-05-16T03:18:53;16.47;;;9.63;;
32407;SDS011;18869;55.970;37.502;2023-05-16T03:21:21;12.60;;;8.53;;
32407;SDS011;18869;55.970;37.502;2023-05-16T03:23:50;12.67;;;8.23;;
32407;SDS011;18869;55.970;37.502;2023-05-16T03:26:19;14.73;;;10.10;;
32407;SDS011;18869;55.970;37.502;2023-05-16T03:28:50;17.00;;;9.77;;
32407;SDS011;18869;55.970;37.502;2023-05-16T03:31:18;11.23;;;8.83;;
32407;SDS011;18869;55.970;37.502;2023-05-16T03:33:46;17.87;;;9.40;;
32407;SDS011;18869;55.970;37.502;2023-05-16T03:36:14;15.40;;;9.80;;
32407;SDS011;18869;55.970;37.502;2023-05-16T03:38:41;13.30;;;8.83;;
32407;SDS011;18869;55.970;37.502;2023-05-16T03:41:11;10.63;;;8.30;;
32407;SDS011;18869;55.970;37.502;2023-05-16T03:43:39;14.10;;;8.90;;
32407;SDS011;18869;55.970;37.502;2023-05-16T03:46:07;14.83;;;7.93;;
32407;SDS011;18869;55.970;37.502;2023-05-16T03:48:36;13.67;;;9.03;;
32407;SDS011;18869;55.970;37.502;2023-05-16T03:51:05;14.53;;;9.07;;
32407;SDS011;18869;55.970;37.502;2023-05-16T03:53:33;14.33;;;8.47;;
32407;SDS011;18869;55.970;37.502;2023-05-16T03:56:01;13.03;;;8.30;;
32407;SDS011;18869;55.970;37.502;2023-05-16T03:58:31;13.40;;;8.13;;
32407;SDS011;18869;55.970;37.502;2023-05-16T04:00:59;13.53;;;7.77;;
32407;SDS011;18869;55.970;37.502;2023-05-16T04:03:27;11.73;;;7.70;;
32407;SDS011;18869;55.970;37.502;2023-05-16T04:05:56;11.83;;;7.77;;
32407;SDS011;18869;55.970;37.502;2023-05-16T04:08:24;16.67;;;7.63;;
32407;SDS011;18869;55.970;37.502;2023-05-16T04:10:52;13.43;;;7.87;;
32407;SDS011;18869;55.970;37.502;2023-05-16T04:13:20;9.90;;;7.23;;
32407;SDS011;18869;55.970;37.502;2023-05-16T04:15:50;11.60;;;6.87;;
32407;SDS011;18869;55.970;37.502;2023-05-16T04:18:19;12.33;;;7.30;;
32407;SDS011;18869;55.970;37.502;2023-05-16T04:20:47;9.50;;;5.97;;
32407;SDS011;18869;55.970;37.502;2023-05-16T04:23:15;10.73;;;6.50;;
32407;SDS011;18869;55.970;37.502;2023-05-16T04:25:43;8.47;;;6.07;;
32407;SDS011;18869;55.970;37.502;2023-05-16T04:28:10;9.50;;;5.50;;
32407;SDS011;18869;55.970;37.502;2023-05-16T04:30:38;7.73;;;5.53;;
32407;SDS011;18869;55.970;37.502;2023-05-16T04:33:08;7.33;;;5.57;;
32407;SDS011;18869;55.970;37.502;2023-05-16T04:35:35;8.00;;;5.23;;
32407;SDS011;18869;55.970;37.502;2023-05-16T04:38:03;8.60;;;5.60;;
32407;SDS011;18869;55.970;37.502;2023-05-16T04:40:31;10.97;;;5.50;;
32407;SDS011;18869;55.970;37.502;2023-05-16T04:43:01;12.90;;;5.10;;
32407;SDS011;18869;55.970;37.502;2023-05-16T04:45:28;10.40;;;5.63;;
32407;SDS011;18869;55.970;37.502;2023-05-16T04:47:56;9.50;;;5.27;;
32407;SDS011;18869;55.970;37.502;2023-05-16T04:50:27;8.60;;;5.30;;
32407;SDS011;18869;55.970;37.502;2023-05-16T04:52:57;10.50;;;5.07;;
32407;SDS011;18869;55.970;37.502;2023-05-16T04:55:25;7.17;;;4.97;;
32407;SDS011;18869;55.970;37.502;2023-05-16T04:57:53;12.10;;;5.20;;
32407;SDS011;18869;55.970;37.502;2023-05-16T05:00:21;8.00;;;5.43;;
32407;SDS011;18869;55.970;37.502;2023-05-16T05:02:49;5.07;;;4.57;;
32407;SDS011;18869;55.970;37.502;2023-05-16T05:05:17;7.43;;;5.10;;
32407;SDS011;18869;55.970;37.502;2023-05-16T05:07:47;10.10;;;4.87;;
32407;SDS011;18869;55.970;37.502;2023-05-16T05:10:15;11.90;;;4.70;;
32407;SDS011;18869;55.970;37.502;2023-05-16T05:12:43;5.87;;;3.93;;
32407;SDS011;18869;55.970;37.502;2023-05-16T05:15:11;7.57;;;4.03;;
32407;SDS011;18869;55.970;37.502;2023-05-16T05:17:40;9.80;;;4.20;;
32407;SDS011;18869;55.970;37.502;2023-05-16T05:20:08;6.77;;;3.90;;
32407;SDS011;18869;55.970;37.502;2023-05-16T05:22:38;8.37;;;3.93;;
32407;SDS011;18869;55.970;37.502;2023-05-16T05:25:08;6.90;;;3.30;;
32407;SDS011;18869;55.970;37.502;2023-05-16T05:27:36;9.73;;;3.40;;
32407;SDS011;18869;55.970;37.502;2023-05-16T05:30:05;7.40;;;3.20;;
32407;SDS011;18869;55.970;37.502;2023-05-16T05:32:33;4.77;;;3.13;;
32407;SDS011;18869;55.970;37.502;2023-05-16T05:35:04;6.43;;;3.23;;
32407;SDS011;18869;55.970;37.502;2023-05-16T05:37:33;5.43;;;3.10;;
32407;SDS011;18869;55.970;37.502;2023-05-16T05:40:04;4.03;;;3.00;;
32407;SDS011;18869;55.970;37.502;2023-05-16T05:42:35;6.10;;;3.27;;
32407;SDS011;18869;55.970;37.502;2023-05-16T05:45:03;7.77;;;3.70;;
32407;SDS011;18869;55.970;37.502;2023-05-16T05:47:33;8.40;;;3.20;;
32407;SDS011;18869;55.970;37.502;2023-05-16T05:50:01;4.97;;;2.90;;
32407;SDS011;18869;55.970;37.502;2023-05-16T05:52:31;5.83;;;2.73;;
32407;SDS011;18869;55.970;37.502;2023-05-16T05:55:00;5.60;;;2.23;;
32407;SDS011;18869;55.970;37.502;2023-05-16T05:57:31;5.73;;;2.43;;
32407;SDS011;18869;55.970;37.502;2023-05-16T06:00:00;5.67;;;2.43;;
32407;SDS011;18869;55.970;37.502;2023-05-16T06:02:34;4.03;;;1.95;;
32407;SDS011;18869;55.970;37.502;2023-05-16T06:05:02;3.65;;;2.17;;
32407;SDS011;18869;55.970;37.502;2023-05-16T06:07:31;7.35;;;1.77;;
32407;SDS011;18869;55.970;37.502;2023-05-16T06:09:59;4.55;;;2.20;;
32407;SDS011;18869;55.970;37.502;2023-05-16T06:12:31;7.22;;;2.17;;
32407;SDS011;18869;55.970;37.502;2023-05-16T06:15:00;5.95;;;1.67;;
32407;SDS011;18869;55.970;37.502;2023-05-16T06:17:31;4.72;;;2.17;;
32407;SDS011;18869;55.970;37.502;2023-05-16T06:19:59;7.90;;;2.20;;
32407;SDS011;18869;55.970;37.502;2023-05-16T06:22:32;4.60;;;2.10;;
32407;SDS011;18869;55.970;37.502;2023-05-16T06:25:00;4.03;;;1.87;;
32407;SDS011;18869;55.970;37.502;2023-05-16T06:27:32;8.05;;;1.85;;
32407;SDS011;18869;55.970;37.502;2023-05-16T06:30:05;3.85;;;2.10;;
32407;SDS011;18869;55.970;37.502;2023-05-16T06:32:33;5.45;;;1.83;;
32407;SDS011;18869;55.970;37.502;2023-05-16T06:35:01;4.87;;;1.42;;
32407;SDS011;18869;55.970;37.502;2023-05-16T06:37:29;4.30;;;1.50;;
32407;SDS011;18869;55.970;37.502;2023-05-16T06:39:57;4.18;;;1.60;;
32407;SDS011;18869;55.970;37.502;2023-05-16T06:42:25;3.95;;;1.33;;
32407;SDS011;18869;55.970;37.502;2023-05-16T06:44:53;8.80;;;1.65;;
32407;SDS011;18869;55.970;37.502;2023-05-16T06:47:23;2.53;;;1.20;;
32407;SDS011;18869;55.970;37.502;2023-05-16T06:49:51;1.30;;;1.05;;
32407;SDS011;18869;55.970;37.502;2023-05-16T06:52:20;8.07;;;2.05;;
32407;SDS011;18869;55.970;37.502;2023-05-16T06:54:48;4.78;;;1.20;;
32407;SDS011;18869;55.970;37.502;2023-05-16T06:57:17;3.62;;;1.10;;
32407;SDS011;18869;55.970;37.502;2023-05-16T06:59:45;2.10;;;1.23;;
32407;SDS011;18869;55.970;37.502;2023-05-16T07:02:12;2.37;;;1.40;;
32407;SDS011;18869;55.970;37.502;2023-05-16T07:04:45;2.72;;;1.30;;
32407;SDS011;18869;55.970;37.502;2023-05-16T07:07:13;2.83;;;1.10;;
32407;SDS011;18869;55.970;37.502;2023-05-16T07:09:41;2.85;;;0.95;;
32407;SDS011;18869;55.970;37.502;2023-05-16T07:12:09;0.88;;;0.70;;
32407;SDS011;18869;55.970;37.502;2023-05-16T07:14:37;3.37;;;0.90;;
32407;SDS011;18869;55.970;37.502;2023-05-16T07:17:05;1.30;;;0.80;;
32407;SDS011;18869;55.970;37.502;2023-05-16T07:19:33;4.12;;;1.30;;
32407;SDS011;18869;55.970;37.502;2023-05-16T07:22:03;1.87;;;0.90;;
32407;SDS011;18869;55.970;37.502;2023-05-16T07:24:31;0.70;;;0.60;;
32407;SDS011;18869;55.970;37.502;2023-05-16T07:27:00;2.78;;;1.02;;
32407;SDS011;18869;55.970;37.502;2023-05-16T07:29:28;4.45;;;1.00;;
32407;SDS011;18869;55.970;37.502;2023-05-16T07:31:57;2.05;;;1.00;;
32407;SDS011;18869;55.970;37.502;2023-05-16T07:34:24;6.22;;;1.55;;
32407;SDS011;18869;55.970;37.502;2023-05-16T07:36:52;2.62;;;0.73;;
32407;SDS011;18869;55.970;37.502;2023-05-16T07:39:22;4.47;;;0.98;;
32407;SDS011;18869;55.970;37.502;2023-05-16T07:41:51;2.08;;;0.88;;
32407;SDS011;18869;55.970;37.502;2023-05-16T07:44:19;1.70;;;0.90;;
32407;SDS011;18869;55.970;37.502;2023-05-16T07:46:48;4.22;;;0.70;;
32407;SDS011;18869;55.970;37.502;2023-05-16T07:49:16;1.20;;;0.70;;
32407;SDS011;18869;55.970;37.502;2023-05-16T07:51:45;5.55;;;1.00;;
32407;SDS011;18869;55.970;37.502;2023-05-16T07:54:14;1.05;;;0.80;;
32407;SDS011;18869;55.970;37.502;2023-05-16T07:56:43;0.95;;;0.70;;
32407;SDS011;18869;55.970;37.502;2023-05-16T07:59:11;0.43;;;0.43;;
32407;SDS011;18869;55.970;37.502;2023-05-16T08:01:40;2.05;;;0.60;;
32407;SDS011;18869;55.970;37.502;2023-05-16T08:04:08;1.37;;;0.98;;
32407;SDS011;18869;55.970;37.502;2023-05-16T08:06:36;3.42;;;0.70;;
32407;SDS011;18869;55.970;37.502;2023-05-16T08:09:03;2.25;;;0.70;;
32407;SDS011;18869;55.970;37.502;2023-05-16T08:11:32;2.97;;;0.77;;
32407;SDS011;18869;55.970;37.502;2023-05-16T08:14:02;3.20;;;1.15;;
32407;SDS011;18869;55.970;37.502;2023-05-16T08:16:30;1.85;;;0.50;;
32407;SDS011;18869;55.970;37.502;2023-05-16T08:19:01;1.87;;;0.70;;
32407;SDS011;18869;55.970;37.502;2023-05-16T08:21:29;0.70;;;0.60;;
32407;SDS011;18869;55.970;37.502;2023-05-16T08:23:57;3.03;;;1.00;;
32407;SDS011;18869;55.970;37.502;2023-05-16T08:26:26;1.10;;;0.60;;
32407;SDS011;18869;55.970;37.502;2023-05-16T08:28:53;2.80;;;0.95;;
32407;SDS011;18869;55.970;37.502;2023-05-16T08:31:23;1.95;;;0.80;;
32407;SDS011;18869;55.970;37.502;2023-05-16T08:33:51;1.95;;;0.68;;
32407;SDS011;18869;55.970;37.502;2023-05-16T08:36:19;4.85;;;0.90;;
32407;SDS011;18869;55.970;37.502;2023-05-16T08:38:48;1.30;;;0.85;;
32407;SDS011;18869;55.970;37.502;2023-05-16T08:41:17;2.05;;;0.80;;
32407;SDS011;18869;55.970;37.502;2023-05-16T08:43:46;3.40;;;1.12;;
32407;SDS011;18869;55.970;37.502;2023-05-16T08:46:15;4.72;;;0.80;;
32407;SDS011;18869;55.970;37.502;2023-05-16T08:48:45;3.15;;;0.93;;
32407;SDS011;18869;55.970;37.502;2023-05-16T08:51:13;1.30;;;0.73;;
32407;SDS011;18869;55.970;37.502;2023-05-16T08:53:45;1.25;;;0.70;;
32407;SDS011;18869;55.970;37.502;2023-05-16T08:56:18;2.90;;;0.60;;
32407;SDS011;18869;55.970;37.502;2023-05-16T08:58:48;0.82;;;0.60;;
32407;SDS011;18869;55.970;37.502;2023-05-16T09:01:16;2.22;;;0.40;;
32407;SDS011;18869;55.970;37.502;2023-05-16T09:03:49;1.80;;;0.93;;
32407;SDS011;18869;55.970;37.502;2023-05-16T09:06:18;2.03;;;0.60;;
32407;SDS011;18869;55.970;37.502;2023-05-16T09:08:46;1.25;;;0.62;;
32407;SDS011;18869;55.970;37.502;2023-05-16T09:11:15;1.27;;;0.60;;
32407;SDS011;18869;55.970;37.502;2023-05-16T09:13:42;4.25;;;0.95;;
32407;SDS011;18869;55.970;37.502;2023-05-16T09:16:11;8.68;;;1.10;;
32407;SDS011;18869;55.970;37.502;2023-05-16T09:18:40;2.15;;;0.93;;
32407;SDS011;18869;55.970;37.502;2023-05-16T09:21:12;3.03;;;0.95;;
32407;SDS011;18869;55.970;37.502;2023-05-16T09:23:41;1.37;;;1.27;;
32407;SDS011;18869;55.970;37.502;2023-05-16T09:26:10;3.12;;;1.50;;
32407;SDS011;18869;55.970;37.502;2023-05-16T09:28:38;4.22;;;0.93;;
32407;SDS011;18869;55.970;37.502;2023-05-16T09:31:18;4.65;;;1.37;;
32407;SDS011;18869;55.970;37.502;2023-05-16T09:33:48;2.03;;;1.12;;
32407;SDS011;18869;55.970;37.502;2023-05-16T09:36:18;5.10;;;1.10;;
32407;SDS011;18869;55.970;37.502;2023-05-16T09:38:46;1.50;;;0.73;;
32407;SDS011;18869;55.970;37.502;2023-05-16T09:41:16;2.42;;;0.80;;
32407;SDS011;18869;55.970;37.502;2023-05-16T09:43:44;3.90;;;1.00;;
32407;SDS011;18869;55.970;37.502;2023-05-16T09:46:12;2.67;;;0.90;;
32407;SDS011;18869;55.970;37.502;2023-05-16T10:21:26;2.13;;;1.10;;
32407;SDS011;18869;55.970;37.502;2023-05-16T10:23:55;1.97;;;1.03;;
32407;SDS011;18869;55.970;37.502;2023-05-16T10:26:26;1.83;;;0.80;;
32407;SDS011;18869;55.970;37.502;2023-05-16T10:28:57;2.43;;;1.10;;
32407;SDS011;18869;55.970;37.502;2023-05-16T10:31:27;2.70;;;1.27;;
32407;SDS011;18869;55.970;37.502;2023-05-16T10:33:55;4.07;;;1.27;;
32407;SDS011;18869;55.970;37.502;2023-05-16T10:36:25;5.20;;;1.10;;
32407;SDS011;18869;55.970;37.502;2023-05-16T10:38:54;2.90;;;1.30;;
32407;SDS011;18869;55.970;37.502;2023-05-16T10:41:23;3.43;;;1.10;;
32407;SDS011;18869;55.970;37.502;2023-05-16T10:43:57;1.47;;;0.93;;
32407;SDS011;18869;55.970;37.502;2023-05-16T10:46:28;6.73;;;1.30;;
32407;SDS011;18869;55.970;37.502;2023-05-16T10:48:56;6.97;;;1.40;;
32407;SDS011;18869;55.970;37.502;2023-05-16T10:51:35;3.10;;;1.30;;
32407;SDS011;18869;55.970;37.502;2023-05-16T10:54:07;2.70;;;1.80;;
32407;SDS011;18869;55.970;37.502;2023-05-16T10:56:37;4.10;;;1.20;;
32407;SDS011;18869;55.970;37.502;2023-05-16T10:59:20;2.53;;;1.10;;
32407;SDS011;18869;55.970;37.502;2023-05-16T11:01:54;3.33;;;1.20;;
32407;SDS011;18869;55.970;37.502;2023-05-16T11:04:22;4.93;;;1.10;;
32407;SDS011;18869;55.970;37.502;2023-05-16T11:06:52;1.10;;;1.00;;
32407;SDS011;18869;55.970;37.502;2023-05-16T11:09:22;2.30;;;1.10;;
32407;SDS011;18869;55.970;37.502;2023-05-16T11:11:56;1.10;;;1.00;;
32407;SDS011;18869;55.970;37.502;2023-05-16T11:14:25;4.13;;;1.13;;
32407;SDS011;18869;55.970;37.502;2023-05-16T11:17:00;1.33;;;1.03;;
32407;SDS011;18869;55.970;37.502;2023-05-16T11:19:31;2.27;;;1.10;;
32407;SDS011;18869;55.970;37.502;2023-05-16T11:22:11;6.47;;;1.33;;
32407;SDS011;18869;55.970;37.502;2023-05-16T11:24:48;5.37;;;1.20;;
32407;SDS011;18869;55.970;37.502;2023-05-16T11:27:22;1.20;;;0.83;;
32407;SDS011;18869;55.970;37.502;2023-05-16T11:29:55;2.60;;;1.07;;
32407;SDS011;18869;55.970;37.502;2023-05-16T11:32:27;2.70;;;0.93;;
32407;SDS011;18869;55.970;37.502;2023-05-16T11:34:54;1.87;;;1.03;;
32407;SDS011;18869;55.970;37.502;2023-05-16T11:37:24;4.40;;;1.30;;
32407;SDS011;18869;55.970;37.502;2023-05-16T11:39:52;4.37;;;1.20;;
32407;SDS011;18869;55.970;37.502;2023-05-16T11:42:27;2.77;;;1.53;;
32407;SDS011;18869;55.970;37.502;2023-05-16T11:45:02;3.33;;;1.37;;
32407;SDS011;18869;55.970;37.502;2023-05-16T11:47:32;1.40;;;1.30;;
32407;SDS011;18869;55.970;37.502;2023-05-16T11:50:03;3.87;;;1.40;;
32407;SDS011;18869;55.970;37.502;2023-05-16T11:52:34;1.20;;;1.10;;
32407;SDS011;18869;55.970;37.502;2023-05-16T11:55:03;1.30;;;1.20;;
32407;SDS011;18869;55.970;37.502;2023-05-16T11:57:31;1.13;;;1.03;;
32407;SDS011;18869;55.970;37.502;2023-05-16T12:00:01;5.47;;;1.63;;
32407;SDS011;18869;55.970;37.502;2023-05-16T12:02:33;2.50;;;1.27;;
32407;SDS011;18869;55.970;37.502;2023-05-16T12:05:05;3.70;;;1.50;;
32407;SDS011;18869;55.970;37.502;2023-05-16T12:07:37;2.13;;;1.17;;
32407;SDS011;18869;55.970;37.502;2023-05-16T12:10:05;1.17;;;1.07;;
32407;SDS011;18869;55.970;37.502;2023-05-16T12:12:33;1.70;;;0.73;;
32407;SDS011;18869;55.970;37.502;2023-05-16T12:15:02;9.43;;;1.30;;
32407;SDS011;18869;55.970;37.502;2023-05-16T12:17:31;3.93;;;1.40;;
32407;SDS011;18869;55.970;37.502;2023-05-16T12:20:00;3.20;;;1.10;;
32407;SDS011;18869;55.970;37.502;2023-05-16T12:22:31;1.87;;;1.30;;
32407;SDS011;18869;55.970;37.502;2023-05-16T12:27:53;6.90;;;1.03;;
32407;SDS011;18869;55.970;37.502;2023-05-16T12:30:22;3.43;;;1.40;;
32407;SDS011;18869;55.970;37.502;2023-05-16T12:32:51;2.57;;;1.33;;
32407;SDS011;18869;55.970;37.502;2023-05-16T12:35:21;3.13;;;0.97;;
32407;SDS011;18869;55.970;37.502;2023-05-16T12:37:49;2.37;;;1.20;;
32407;SDS011;18869;55.970;37.502;2023-05-16T12:40:18;1.20;;;1.10;;
32407;SDS011;18869;55.970;37.502;2023-05-16T12:42:51;1.77;;;1.10;;
32407;SDS011;18869;55.970;37.502;2023-05-16T12:45:20;5.60;;;1.50;;
32407;SDS011;18869;55.970;37.502;2023-05-16T12:47:49;4.90;;;1.50;;
32407;SDS011;18869;55.970;37.502;2023-05-16T12:50:17;2.37;;;1.60;;
32407;SDS011;18869;55.970;37.502;2023-05-16T12:52:46;4.83;;;1.60;;
32407;SDS011;18869;55.970;37.502;2023-05-16T12:55:16;1.70;;;1.33;;
32407;SDS011;18869;55.970;37.502;2023-05-16T12:57:47;5.20;;;1.40;;
32407;SDS011;18869;55.970;37.502;2023-05-16T13:00:18;5.20;;;1.67;;
32407;SDS011;18869;55.970;37.502;2023-05-16T13:02:47;8.40;;;2.70;;
32407;SDS011;18869;55.970;37.502;2023-05-16T13:05:15;2.23;;;1.70;;
32407;SDS011;18869;55.970;37.502;2023-05-16T13:07:44;1.60;;;1.50;;
32407;SDS011;18869;55.970;37.502;2023-05-16T13:10:11;3.23;;;1.67;;
32407;SDS011;18869;55.970;37.502;2023-05-16T13:12:39;5.53;;;2.97;;
32407;SDS011;18869;55.970;37.502;2023-05-16T13:15:08;3.67;;;1.80;;
32407;SDS011;18869;55.970;37.502;2023-05-16T13:17:39;3.23;;;1.90;;
32407;SDS011;18869;55.970;37.502;2023-05-16T13:20:09;4.10;;;2.50;;
32407;SDS011;18869;55.970;37.502;2023-05-16T13:22:40;6.50;;;2.57;;
32407;SDS011;18869;55.970;37.502;2023-05-16T13:25:10;3.70;;;2.27;;
32407;SDS011;18869;55.970;37.502;2023-05-16T13:27:38;3.63;;;2.20;;
32407;SDS011;18869;55.970;37.502;2023-05-16T13:30:07;2.77;;;2.03;;
32407;SDS011;18869;55.970;37.502;2023-05-16T13:32:38;1.80;;;1.43;;
32407;SDS011;18869;55.970;37.502;2023-05-16T13:35:06;1.90;;;1.57;;
32407;SDS011;18869;55.970;37.502;2023-05-16T13:37:35;2.27;;;1.40;;
32407;SDS011;18869;55.970;37.502;2023-05-16T13:40:03;2.40;;;1.30;;
32407;SDS011;18869;55.970;37.502;2023-05-16T13:42:35;2.47;;;1.90;;
32407;SDS011;18869;55.970;37.502;2023-05-16T13:45:05;3.20;;;1.90;;
32407;SDS011;18869;55.970;37.502;2023-05-16T13:47:34;5.40;;;1.80;;
32407;SDS011;18869;55.970;37.502;2023-05-16T13:50:05;4.50;;;2.10;;
32407;SDS011;18869;55.970;37.502;2023-05-16T13:52:35;4.17;;;2.07;;
32407;SDS011;18869;55.970;37.502;2023-05-16T13:55:04;4.80;;;2.80;;
32407;SDS011;18869;55.970;37.502;2023-05-16T13:57:32;5.50;;;2.70;;
32407;SDS011;18869;55.970;37.502;2023-05-16T14:00:00;5.53;;;2.67;;
32407;SDS011;18869;55.970;37.502;2023-05-16T14:02:38;8.53;;;2.20;;
32407;SDS011;18869;55.970;37.502;2023-05-16T14:05:08;3.20;;;2.40;;
32407;SDS011;18869;55.970;37.502;2023-05-16T14:07:37;4.93;;;2.53;;
32407;SDS011;18869;55.970;37.502;2023-05-16T14:10:08;4.37;;;2.63;;
32407;SDS011;18869;55.970;37.502;2023-05-16T14:12:36;5.77;;;2.50;;
32407;SDS011;18869;55.970;37.502;2023-05-16T14:15:06;3.30;;;2.60;;
32407;SDS011;18869;55.970;37.502;2023-05-16T14:17:38;6.97;;;3.10;;
32407;SDS011;18869;55.970;37.502;2023-05-16T14:20:06;4.10;;;2.77;;
32407;SDS011;18869;55.970;37.502;2023-05-16T14:22:36;4.70;;;2.70;;
32407;SDS011;18869;55.970;37.502;2023-05-16T14:25:05;4.27;;;2.10;;
32407;SDS011;18869;55.970;37.502;2023-05-16T14:27:33;3.93;;;2.07;;
32407;SDS011;18869;55.970;37.502;2023-05-16T14:30:00;4.73;;;1.77;;
32407;SDS011;18869;55.970;37.502;2023-05-16T14:32:31;3.10;;;1.37;;
32407;SDS011;18869;55.970;37.502;2023-05-16T14:35:02;5.17;;;1.43;;
32407;SDS011;18869;55.970;37.502;2023-05-16T14:37:33;2.87;;;1.30;;
32407;SDS011;18869;55.970;37.502;2023-05-16T14:40:06;2.13;;;1.70;;
32407;SDS011;18869;55.970;37.502;2023-05-16T14:42:36;4.20;;;2.13;;
32407;SDS011;18869;55.970;37.502;2023-05-16T14:45:04;6.40;;;3.00;;
32407;SDS011;18869;55.970;37.502;2023-05-16T14:47:33;6.00;;;3.27;;
32407;SDS011;18869;55.970;37.502;2023-05-16T14:50:03;4.87;;;2.90;;
32407;SDS011;18869;55.970;37.502;2023-05-16T14:52:40;3.10;;;1.93;;
32407;SDS011;18869;55.970;37.502;2023-05-16T14:55:09;5.67;;;2.70;;
32407;SDS011;18869;55.970;37.502;2023-05-16T14:57:37;6.83;;;3.37;;
32407;SDS011;18869;55.970;37.502;2023-05-16T15:00:09;8.27;;;3.17;;
32407;SDS011;18869;55.970;37.502;2023-05-16T15:02:38;5.57;;;2.50;;
32407;SDS011;18869;55.970;37.502;2023-05-16T15:05:06;3.80;;;2.63;;
32407;SDS011;18869;55.970;37.502;2023-05-16T15:07:35;3.43;;;2.20;;
32407;SDS011;18869;55.970;37.502;2023-05-16T15:10:04;3.10;;;2.00;;
32407;SDS011;18869;55.970;37.502;2023-05-16T15:12:34;4.90;;;2.40;;
32407;SDS011;18869;55.970;37.502;2023-05-16T15:15:06;4.80;;;2.40;;
32407;SDS011;18869;55.970;37.502;2023-05-16T15:17:36;5.00;;;2.50;;